Coin, Iowa
Current Conditions -  °F | °C
As of 7:55 AM on Monday 20 Oct 2014 (Local Time) from KICL Reporting Station
Moderate Fog Moderate Fog  
Wind Chill: 41°   Ceiling: Unl
Heat Index: 41°   Visibility: 0mi
Dew Point: 41°   Wind: 0mph
Humidity: 100%   Direction: NA
Pressure: 30.05"   Gusts: NA
Location:  40.65°N, 95.23°W
Report Text: KICL 201255Z AUTO 00000KT M1/4SM FG VV000 05/05 A3005 RMK AO2
Loading
Personal Weather Stations






























Interactive Weather Map New forecast layout! Learn more

10-Day Weather Forecast

Advertisements
Track Severe Weather on mobile